sensor_id;sensor_type;location;lat;lon;timestamp;temperature;humidity
13850;DHT22;6995;52.618;13.488;2023-06-14T00:01:46;14.90;1.00
13850;DHT22;6995;52.618;13.488;2023-06-14T00:04:12;14.80;1.00
13850;DHT22;6995;52.618;13.488;2023-06-14T00:06:39;14.80;1.00
13850;DHT22;6995;52.618;13.488;2023-06-14T00:09:04;14.80;1.00
13850;DHT22;6995;52.618;13.488;2023-06-14T00:11:33;14.70;1.00
13850;DHT22;6995;52.618;13.488;2023-06-14T00:13:59;14.70;1.00
13850;DHT22;6995;52.618;13.488;2023-06-14T00:16:24;14.70;1.00
13850;DHT22;6995;52.618;13.488;2023-06-14T00:18:50;14.60;1.00
13850;DHT22;6995;52.618;13.488;2023-06-14T00:21:18;14.60;1.00
13850;DHT22;6995;52.618;13.488;2023-06-14T00:23:44;14.60;1.00
13850;DHT22;6995;52.618;13.488;2023-06-14T00:26:10;14.60;1.00
13850;DHT22;6995;52.618;13.488;2023-06-14T00:28:35;14.60;1.00
13850;DHT22;6995;52.618;13.488;2023-06-14T00:31:01;14.50;1.00
13850;DHT22;6995;52.618;13.488;2023-06-14T00:33:27;14.40;1.00
13850;DHT22;6995;52.618;13.488;2023-06-14T00:35:52;14.40;1.00
13850;DHT22;6995;52.618;13.488;2023-06-14T00:38:21;14.40;1.00
13850;DHT22;6995;52.618;13.488;2023-06-14T00:40:46;14.40;1.00
13850;DHT22;6995;52.618;13.488;2023-06-14T00:43:12;14.40;1.00
13850;DHT22;6995;52.618;13.488;2023-06-14T00:45:38;14.30;1.00
13850;DHT22;6995;52.618;13.488;2023-06-14T00:48:04;14.30;1.00
13850;DHT22;6995;52.618;13.488;2023-06-14T00:50:32;14.30;1.00
13850;DHT22;6995;52.618;13.488;2023-06-14T00:52:59;14.20;1.00
13850;DHT22;6995;52.618;13.488;2023-06-14T00:55:25;14.20;1.00
13850;DHT22;6995;52.618;13.488;2023-06-14T00:57:51;14.10;1.00
13850;DHT22;6995;52.618;13.488;2023-06-14T01:00:17;14.10;1.00
13850;DHT22;6995;52.618;13.488;2023-06-14T01:02:42;14.10;1.00
13850;DHT22;6995;52.618;13.488;2023-06-14T01:05:09;14.10;1.00
13850;DHT22;6995;52.618;13.488;2023-06-14T01:08:31;14.10;1.00
13850;DHT22;6995;52.618;13.488;2023-06-14T01:11:02;14.10;1.00
13850;DHT22;6995;52.618;13.488;2023-06-14T01:13:38;14.10;1.00
13850;DHT22;6995;52.618;13.488;2023-06-14T01:16:06;14.10;1.00
13850;DHT22;6995;52.618;13.488;2023-06-14T01:18:33;14.00;1.00
13850;DHT22;6995;52.618;13.488;2023-06-14T01:21:00;14.00;1.00
13850;DHT22;6995;52.618;13.488;2023-06-14T01:23:31;14.00;1.00
13850;DHT22;6995;52.618;13.488;2023-06-14T01:25:58;14.00;1.00
13850;DHT22;6995;52.618;13.488;2023-06-14T01:28:27;14.00;1.00
13850;DHT22;6995;52.618;13.488;2023-06-14T01:31:00;14.00;1.00
13850;DHT22;6995;52.618;13.488;2023-06-14T01:33:29;14.00;1.00
13850;DHT22;6995;52.618;13.488;2023-06-14T01:35:56;14.10;1.00
13850;DHT22;6995;52.618;13.488;2023-06-14T01:38:25;14.10;1.00
13850;DHT22;6995;52.618;13.488;2023-06-14T01:40:52;14.00;1.00
13850;DHT22;6995;52.618;13.488;2023-06-14T01:43:20;14.00;1.00
13850;DHT22;6995;52.618;13.488;2023-06-14T01:45:47;13.90;18.90
13850;DHT22;6995;52.618;13.488;2023-06-14T01:48:14;13.90;1.00
13850;DHT22;6995;52.618;13.488;2023-06-14T01:50:40;13.80;2.90
13850;DHT22;6995;52.618;13.488;2023-06-14T01:53:08;13.90;5.00
13850;DHT22;6995;52.618;13.488;2023-06-14T01:55:34;13.80;6.90
13850;DHT22;6995;52.618;13.488;2023-06-14T01:58:03;13.80;6.90
13850;DHT22;6995;52.618;13.488;2023-06-14T02:00:28;13.70;7.80
13850;DHT22;6995;52.618;13.488;2023-06-14T02:02:54;13.70;9.60
13850;DHT22;6995;52.618;13.488;2023-06-14T02:05:19;13.70;11.60
13850;DHT22;6995;52.618;13.488;2023-06-14T02:07:46;13.70;10.70
13850;DHT22;6995;52.618;13.488;2023-06-14T02:10:16;13.70;11.50
13850;DHT22;6995;52.618;13.488;2023-06-14T02:12:43;13.70;12.40
13850;DHT22;6995;52.618;13.488;2023-06-14T02:15:09;13.70;13.80
13850;DHT22;6995;52.618;13.488;2023-06-14T02:17:48;13.70;11.60
13850;DHT22;6995;52.618;13.488;2023-06-14T02:20:15;13.70;11.10
13850;DHT22;6995;52.618;13.488;2023-06-14T02:22:41;13.70;11.40
13850;DHT22;6995;52.618;13.488;2023-06-14T02:25:07;13.70;15.60
13850;DHT22;6995;52.618;13.488;2023-06-14T02:27:34;13.60;14.00
13850;DHT22;6995;52.618;13.488;2023-06-14T02:30:00;13.60;16.10
13850;DHT22;6995;52.618;13.488;2023-06-14T02:32:26;13.60;17.10
13850;DHT22;6995;52.618;13.488;2023-06-14T02:34:53;13.60;15.70
13850;DHT22;6995;52.618;13.488;2023-06-14T02:37:19;13.60;16.80
13850;DHT22;6995;52.618;13.488;2023-06-14T02:39:44;13.60;17.50
13850;DHT22;6995;52.618;13.488;2023-06-14T02:42:10;13.50;18.50
13850;DHT22;6995;52.618;13.488;2023-06-14T02:44:36;13.50;19.30
13850;DHT22;6995;52.618;13.488;2023-06-14T02:47:02;13.40;22.20
13850;DHT22;6995;52.618;13.488;2023-06-14T02:49:28;13.40;20.60
13850;DHT22;6995;52.618;13.488;2023-06-14T02:51:55;13.40;25.00
13850;DHT22;6995;52.618;13.488;2023-06-14T02:54:20;13.30;27.10
13850;DHT22;6995;52.618;13.488;2023-06-14T02:56:46;13.30;26.50
13850;DHT22;6995;52.618;13.488;2023-06-14T02:59:12;13.30;29.00
13850;DHT22;6995;52.618;13.488;2023-06-14T03:01:39;13.30;29.20
13850;DHT22;6995;52.618;13.488;2023-06-14T03:04:07;13.30;31.20
13850;DHT22;6995;52.618;13.488;2023-06-14T03:06:33;13.40;29.10
13850;DHT22;6995;52.618;13.488;2023-06-14T03:08:59;13.30;27.40
13850;DHT22;6995;52.618;13.488;2023-06-14T03:11:26;13.40;30.40
13850;DHT22;6995;52.618;13.488;2023-06-14T03:13:52;13.40;29.10
13850;DHT22;6995;52.618;13.488;2023-06-14T03:16:18;13.40;28.30
13850;DHT22;6995;52.618;13.488;2023-06-14T03:18:48;13.40;29.50
13850;DHT22;6995;52.618;13.488;2023-06-14T03:21:14;13.40;25.60
13850;DHT22;6995;52.618;13.488;2023-06-14T03:23:41;13.40;26.00
13850;DHT22;6995;52.618;13.488;2023-06-14T03:26:07;13.40;29.00
13850;DHT22;6995;52.618;13.488;2023-06-14T03:28:33;13.40;29.80
13850;DHT22;6995;52.618;13.488;2023-06-14T03:30:59;13.50;28.90
13850;DHT22;6995;52.618;13.488;2023-06-14T03:33:25;13.50;28.90
13850;DHT22;6995;52.618;13.488;2023-06-14T03:35:51;13.50;29.30
13850;DHT22;6995;52.618;13.488;2023-06-14T03:38:17;13.60;30.00
13850;DHT22;6995;52.618;13.488;2023-06-14T03:40:42;13.60;24.30
13850;DHT22;6995;52.618;13.488;2023-06-14T03:43:09;13.60;26.60
13850;DHT22;6995;52.618;13.488;2023-06-14T03:45:35;13.70;24.60
13850;DHT22;6995;52.618;13.488;2023-06-14T03:48:01;13.80;22.50
13850;DHT22;6995;52.618;13.488;2023-06-14T03:50:28;14.00;17.60
13850;DHT22;6995;52.618;13.488;2023-06-14T03:52:53;14.10;17.40
13850;DHT22;6995;52.618;13.488;2023-06-14T03:55:19;14.20;15.40
13850;DHT22;6995;52.618;13.488;2023-06-14T03:57:45;14.30;12.90
13850;DHT22;6995;52.618;13.488;2023-06-14T04:00:11;14.40;10.50
13850;DHT22;6995;52.618;13.488;2023-06-14T04:02:38;14.40;9.00
13850;DHT22;6995;52.618;13.488;2023-06-14T04:05:04;14.40;9.60
13850;DHT22;6995;52.618;13.488;2023-06-14T04:07:34;14.50;7.50
13850;DHT22;6995;52.618;13.488;2023-06-14T04:10:06;14.50;7.30
13850;DHT22;6995;52.618;13.488;2023-06-14T04:12:32;14.50;7.00
13850;DHT22;6995;52.618;13.488;2023-06-14T04:14:57;14.50;6.90
13850;DHT22;6995;52.618;13.488;2023-06-14T04:17:23;14.60;7.20
13850;DHT22;6995;52.618;13.488;2023-06-14T04:19:49;14.60;5.30
13850;DHT22;6995;52.618;13.488;2023-06-14T04:22:14;14.60;5.80
13850;DHT22;6995;52.618;13.488;2023-06-14T04:24:40;14.80;3.30
13850;DHT22;6995;52.618;13.488;2023-06-14T04:27:07;14.90;1.00
13850;DHT22;6995;52.618;13.488;2023-06-14T04:29:33;15.00;1.00
13850;DHT22;6995;52.618;13.488;2023-06-14T04:31:59;15.20;1.00
13850;DHT22;6995;52.618;13.488;2023-06-14T04:34:28;15.30;1.00
13850;DHT22;6995;52.618;13.488;2023-06-14T04:36:59;15.50;1.00
13850;DHT22;6995;52.618;13.488;2023-06-14T04:39:27;15.60;1.00
13850;DHT22;6995;52.618;13.488;2023-06-14T04:41:53;15.70;1.00
13850;DHT22;6995;52.618;13.488;2023-06-14T04:44:25;15.90;1.00
13850;DHT22;6995;52.618;13.488;2023-06-14T04:46:56;16.00;1.00
13850;DHT22;6995;52.618;13.488;2023-06-14T04:49:21;15.90;1.00
13850;DHT22;6995;52.618;13.488;2023-06-14T04:51:49;15.80;1.00
13850;DHT22;6995;52.618;13.488;2023-06-14T04:54:23;15.80;1.00
13850;DHT22;6995;52.618;13.488;2023-06-14T04:56:50;15.90;1.00
13850;DHT22;6995;52.618;13.488;2023-06-14T04:59:16;16.10;1.00
13850;DHT22;6995;52.618;13.488;2023-06-14T05:01:43;16.20;1.00
13850;DHT22;6995;52.618;13.488;2023-06-14T05:04:14;16.30;1.00
13850;DHT22;6995;52.618;13.488;2023-06-14T05:06:41;16.40;1.00
13850;DHT22;6995;52.618;13.488;2023-06-14T05:09:07;16.50;1.00
13850;DHT22;6995;52.618;13.488;2023-06-14T05:11:32;16.50;1.00
13850;DHT22;6995;52.618;13.488;2023-06-14T05:13:58;16.30;1.00
13850;DHT22;6995;52.618;13.488;2023-06-14T05:16:24;16.10;1.00
13850;DHT22;6995;52.618;13.488;2023-06-14T05:18:51;16.00;1.00
13850;DHT22;6995;52.618;13.488;2023-06-14T05:21:17;16.10;1.00
13850;DHT22;6995;52.618;13.488;2023-06-14T05:23:46;16.20;1.00
13850;DHT22;6995;52.618;13.488;2023-06-14T05:26:12;16.30;1.00
13850;DHT22;6995;52.618;13.488;2023-06-14T05:28:38;16.40;1.00
13850;DHT22;6995;52.618;13.488;2023-06-14T05:31:04;16.40;1.00
13850;DHT22;6995;52.618;13.488;2023-06-14T05:33:29;16.50;1.00
13850;DHT22;6995;52.618;13.488;2023-06-14T05:35:55;16.60;1.00
13850;DHT22;6995;52.618;13.488;2023-06-14T05:38:21;16.60;1.00
13850;DHT22;6995;52.618;13.488;2023-06-14T05:40:46;16.80;1.00
13850;DHT22;6995;52.618;13.488;2023-06-14T05:43:12;16.70;1.00
13850;DHT22;6995;52.618;13.488;2023-06-14T05:45:37;16.90;1.00
13850;DHT22;6995;52.618;13.488;2023-06-14T05:48:03;17.00;1.00
13850;DHT22;6995;52.618;13.488;2023-06-14T05:50:29;17.10;1.00
13850;DHT22;6995;52.618;13.488;2023-06-14T05:52:55;17.30;1.00
13850;DHT22;6995;52.618;13.488;2023-06-14T05:55:21;17.30;1.00
13850;DHT22;6995;52.618;13.488;2023-06-14T05:57:47;17.30;1.00
13850;DHT22;6995;52.618;13.488;2023-06-14T06:00:14;17.50;1.00
13850;DHT22;6995;52.618;13.488;2023-06-14T06:02:44;17.60;1.00
13850;DHT22;6995;52.618;13.488;2023-06-14T06:05:11;17.60;1.00
13850;DHT22;6995;52.618;13.488;2023-06-14T06:07:37;17.60;1.00
13850;DHT22;6995;52.618;13.488;2023-06-14T06:10:05;17.30;1.00
13850;DHT22;6995;52.618;13.488;2023-06-14T06:12:31;17.30;1.00
13850;DHT22;6995;52.618;13.488;2023-06-14T06:14:58;17.40;1.00
13850;DHT22;6995;52.618;13.488;2023-06-14T06:17:25;17.50;1.00
13850;DHT22;6995;52.618;13.488;2023-06-14T06:19:51;17.70;1.00
13850;DHT22;6995;52.618;13.488;2023-06-14T06:22:16;17.70;1.00
13850;DHT22;6995;52.618;13.488;2023-06-14T06:24:42;17.70;1.00
13850;DHT22;6995;52.618;13.488;2023-06-14T06:27:08;17.80;1.00
13850;DHT22;6995;52.618;13.488;2023-06-14T06:29:34;17.80;1.00
13850;DHT22;6995;52.618;13.488;2023-06-14T06:32:00;17.70;1.00
13850;DHT22;6995;52.618;13.488;2023-06-14T06:34:26;17.60;1.00
13850;DHT22;6995;52.618;13.488;2023-06-14T06:36:52;17.60;1.00
13850;DHT22;6995;52.618;13.488;2023-06-14T06:39:18;17.70;1.00
13850;DHT22;6995;52.618;13.488;2023-06-14T06:41:43;17.90;1.00
13850;DHT22;6995;52.618;13.488;2023-06-14T06:44:09;17.90;1.00
13850;DHT22;6995;52.618;13.488;2023-06-14T06:46:38;17.90;1.00
13850;DHT22;6995;52.618;13.488;2023-06-14T06:49:06;17.90;1.00
13850;DHT22;6995;52.618;13.488;2023-06-14T06:51:31;18.00;1.00
13850;DHT22;6995;52.618;13.488;2023-06-14T06:53:58;18.30;1.00
13850;DHT22;6995;52.618;13.488;2023-06-14T06:56:23;18.60;1.00
13850;DHT22;6995;52.618;13.488;2023-06-14T06:58:50;18.70;1.00
13850;DHT22;6995;52.618;13.488;2023-06-14T07:01:16;18.80;1.00
13850;DHT22;6995;52.618;13.488;2023-06-14T07:03:42;18.80;1.00
13850;DHT22;6995;52.618;13.488;2023-06-14T07:06:08;18.90;1.00
13850;DHT22;6995;52.618;13.488;2023-06-14T07:08:34;18.90;1.00
13850;DHT22;6995;52.618;13.488;2023-06-14T07:10:59;19.00;1.00
13850;DHT22;6995;52.618;13.488;2023-06-14T07:13:25;19.00;1.00
13850;DHT22;6995;52.618;13.488;2023-06-14T07:15:53;19.10;1.00
13850;DHT22;6995;52.618;13.488;2023-06-14T07:18:20;19.20;1.00
13850;DHT22;6995;52.618;13.488;2023-06-14T07:20:46;19.10;1.00
13850;DHT22;6995;52.618;13.488;2023-06-14T07:23:13;19.30;1.00
13850;DHT22;6995;52.618;13.488;2023-06-14T07:25:38;19.40;1.00
13850;DHT22;6995;52.618;13.488;2023-06-14T07:28:04;19.60;1.00
13850;DHT22;6995;52.618;13.488;2023-06-14T07:30:30;19.80;1.00
13850;DHT22;6995;52.618;13.488;2023-06-14T07:32:55;19.70;1.00
13850;DHT22;6995;52.618;13.488;2023-06-14T07:35:22;20.00;1.00
13850;DHT22;6995;52.618;13.488;2023-06-14T07:37:47;20.20;1.00
13850;DHT22;6995;52.618;13.488;2023-06-14T07:40:13;20.40;1.00
13850;DHT22;6995;52.618;13.488;2023-06-14T07:42:39;20.60;1.00
13850;DHT22;6995;52.618;13.488;2023-06-14T07:45:05;20.70;1.00
13850;DHT22;6995;52.618;13.488;2023-06-14T07:47:32;20.80;1.00
13850;DHT22;6995;52.618;13.488;2023-06-14T07:49:58;20.90;1.00
13850;DHT22;6995;52.618;13.488;2023-06-14T07:52:23;21.00;1.00
13850;DHT22;6995;52.618;13.488;2023-06-14T07:54:49;21.10;1.00
13850;DHT22;6995;52.618;13.488;2023-06-14T07:57:15;21.10;1.00
13850;DHT22;6995;52.618;13.488;2023-06-14T07:59:40;20.90;1.00
13850;DHT22;6995;52.618;13.488;2023-06-14T08:02:06;20.80;1.00
13850;DHT22;6995;52.618;13.488;2023-06-14T08:04:32;21.20;1.00
13850;DHT22;6995;52.618;13.488;2023-06-14T08:07:01;21.60;1.00
13850;DHT22;6995;52.618;13.488;2023-06-14T08:09:27;21.50;1.00
13850;DHT22;6995;52.618;13.488;2023-06-14T08:11:54;21.70;1.00
13850;DHT22;6995;52.618;13.488;2023-06-14T08:14:20;22.00;1.00
13850;DHT22;6995;52.618;13.488;2023-06-14T08:16:46;22.20;1.00
13850;DHT22;6995;52.618;13.488;2023-06-14T08:19:14;22.00;1.00
13850;DHT22;6995;52.618;13.488;2023-06-14T08:21:42;22.10;1.00
13850;DHT22;6995;52.618;13.488;2023-06-14T08:24:10;22.10;1.00
13850;DHT22;6995;52.618;13.488;2023-06-14T08:26:38;21.60;1.00
13850;DHT22;6995;52.618;13.488;2023-06-14T08:29:03;21.30;1.00
13850;DHT22;6995;52.618;13.488;2023-06-14T08:31:29;21.40;1.00
13850;DHT22;6995;52.618;13.488;2023-06-14T08:33:57;21.30;1.00
13850;DHT22;6995;52.618;13.488;2023-06-14T08:36:22;21.60;1.00
13850;DHT22;6995;52.618;13.488;2023-06-14T08:38:48;22.30;1.00
13850;DHT22;6995;52.618;13.488;2023-06-14T08:41:20;22.40;1.00
13850;DHT22;6995;52.618;13.488;2023-06-14T08:43:46;22.60;1.00
13850;DHT22;6995;52.618;13.488;2023-06-14T08:46:12;22.60;1.00
13850;DHT22;6995;52.618;13.488;2023-06-14T08:48:42;22.90;1.00
13850;DHT22;6995;52.618;13.488;2023-06-14T08:51:10;22.80;1.00
13850;DHT22;6995;52.618;13.488;2023-06-14T08:53:38;22.80;1.00
13850;DHT22;6995;52.618;13.488;2023-06-14T08:56:08;22.30;1.00
13850;DHT22;6995;52.618;13.488;2023-06-14T08:58:40;22.30;1.00
13850;DHT22;6995;52.618;13.488;2023-06-14T09:01:09;22.30;1.00
13850;DHT22;6995;52.618;13.488;2023-06-14T09:03:37;22.00;1.00
13850;DHT22;6995;52.618;13.488;2023-06-14T09:06:06;21.70;1.00
13850;DHT22;6995;52.618;13.488;2023-06-14T09:08:34;21.80;1.00
13850;DHT22;6995;52.618;13.488;2023-06-14T09:11:01;22.20;1.00
13850;DHT22;6995;52.618;13.488;2023-06-14T09:13:27;22.50;1.00
13850;DHT22;6995;52.618;13.488;2023-06-14T09:15:53;22.70;1.00
13850;DHT22;6995;52.618;13.488;2023-06-14T09:18:20;22.60;1.00
13850;DHT22;6995;52.618;13.488;2023-06-14T09:20:46;23.00;1.00
13850;DHT22;6995;52.618;13.488;2023-06-14T09:23:13;23.30;1.00
13850;DHT22;6995;52.618;13.488;2023-06-14T09:25:43;23.50;1.00
13850;DHT22;6995;52.618;13.488;2023-06-14T09:28:09;23.20;1.00
13850;DHT22;6995;52.618;13.488;2023-06-14T09:30:38;22.90;1.00
13850;DHT22;6995;52.618;13.488;2023-06-14T09:33:04;22.90;1.00
13850;DHT22;6995;52.618;13.488;2023-06-14T09:35:31;22.60;1.00
13850;DHT22;6995;52.618;13.488;2023-06-14T09:37:57;22.90;1.00
13850;DHT22;6995;52.618;13.488;2023-06-14T09:40:23;23.40;1.00
13850;DHT22;6995;52.618;13.488;2023-06-14T09:42:49;23.70;1.00
13850;DHT22;6995;52.618;13.488;2023-06-14T09:45:16;23.90;1.00
13850;DHT22;6995;52.618;13.488;2023-06-14T09:47:49;23.90;1.00
13850;DHT22;6995;52.618;13.488;2023-06-14T09:50:14;24.00;1.00
13850;DHT22;6995;52.618;13.488;2023-06-14T09:52:43;24.00;1.00
13850;DHT22;6995;52.618;13.488;2023-06-14T09:55:12;24.00;1.00
13850;DHT22;6995;52.618;13.488;2023-06-14T09:57:41;23.90;1.00
13850;DHT22;6995;52.618;13.488;2023-06-14T10:00:08;23.80;1.00
13850;DHT22;6995;52.618;13.488;2023-06-14T10:02:37;23.60;1.00
13850;DHT22;6995;52.618;13.488;2023-06-14T10:05:07;23.50;1.00
13850;DHT22;6995;52.618;13.488;2023-06-14T10:07:51;23.50;1.00
13850;DHT22;6995;52.618;13.488;2023-06-14T10:10:18;23.50;1.00
13850;DHT22;6995;52.618;13.488;2023-06-14T10:12:44;23.60;1.00
13850;DHT22;6995;52.618;13.488;2023-06-14T10:15:19;23.90;1.00
13850;DHT22;6995;52.618;13.488;2023-06-14T10:17:50;24.00;1.00
13850;DHT22;6995;52.618;13.488;2023-06-14T10:22:53;24.20;1.00
13850;DHT22;6995;52.618;13.488;2023-06-14T10:25:30;24.30;1.00
13850;DHT22;6995;52.618;13.488;2023-06-14T10:30:37;24.60;1.00
13850;DHT22;6995;52.618;13.488;2023-06-14T10:33:04;24.70;1.00
13850;DHT22;6995;52.618;13.488;2023-06-14T10:35:33;24.60;1.00
13850;DHT22;6995;52.618;13.488;2023-06-14T10:38:10;24.50;1.00
13850;DHT22;6995;52.618;13.488;2023-06-14T10:40:37;24.60;1.00
13850;DHT22;6995;52.618;13.488;2023-06-14T10:43:23;24.90;1.00
13850;DHT22;6995;52.618;13.488;2023-06-14T10:46:19;25.30;1.00
13850;DHT22;6995;52.618;13.488;2023-06-14T10:48:48;25.60;1.00
13850;DHT22;6995;52.618;13.488;2023-06-14T10:51:18;25.50;1.00
13850;DHT22;6995;52.618;13.488;2023-06-14T10:53:47;25.20;1.00
13850;DHT22;6995;52.618;13.488;2023-06-14T10:56:33;24.90;1.00
13850;DHT22;6995;52.618;13.488;2023-06-14T10:58:59;24.90;1.00
13850;DHT22;6995;52.618;13.488;2023-06-14T11:04:50;26.00;1.00
13850;DHT22;6995;52.618;13.488;2023-06-14T11:13:02;25.80;1.00
13850;DHT22;6995;52.618;13.488;2023-06-14T11:15:29;26.00;1.00
13850;DHT22;6995;52.618;13.488;2023-06-14T11:17:56;26.30;1.00
13850;DHT22;6995;52.618;13.488;2023-06-14T11:20:25;26.50;1.00
13850;DHT22;6995;52.618;13.488;2023-06-14T11:22:51;26.70;1.00
13850;DHT22;6995;52.618;13.488;2023-06-14T11:25:17;26.90;1.00
13850;DHT22;6995;52.618;13.488;2023-06-14T11:27:44;27.10;1.00
13850;DHT22;6995;52.618;13.488;2023-06-14T11:30:10;26.90;1.00
13850;DHT22;6995;52.618;13.488;2023-06-14T11:32:36;27.20;1.00
13850;DHT22;6995;52.618;13.488;2023-06-14T11:35:03;27.10;1.00
13850;DHT22;6995;52.618;13.488;2023-06-14T11:37:30;27.00;1.00
13850;DHT22;6995;52.618;13.488;2023-06-14T11:40:01;27.10;1.00
13850;DHT22;6995;52.618;13.488;2023-06-14T11:42:29;27.30;1.00
13850;DHT22;6995;52.618;13.488;2023-06-14T11:44:55;27.20;1.00
13850;DHT22;6995;52.618;13.488;2023-06-14T11:47:22;27.00;1.00
13850;DHT22;6995;52.618;13.488;2023-06-14T11:49:48;27.30;1.00
13850;DHT22;6995;52.618;13.488;2023-06-14T11:52:14;27.10;1.00
13850;DHT22;6995;52.618;13.488;2023-06-14T11:54:40;27.30;1.00
13850;DHT22;6995;52.618;13.488;2023-06-14T11:57:09;27.60;1.00
13850;DHT22;6995;52.618;13.488;2023-06-14T11:59:39;27.80;1.00
13850;DHT22;6995;52.618;13.488;2023-06-14T12:02:06;27.90;1.00
13850;DHT22;6995;52.618;13.488;2023-06-14T12:04:32;27.40;1.00
13850;DHT22;6995;52.618;13.488;2023-06-14T12:07:09;27.10;1.00
13850;DHT22;6995;52.618;13.488;2023-06-14T12:09:36;27.30;1.00
13850;DHT22;6995;52.618;13.488;2023-06-14T12:12:02;27.30;1.00
13850;DHT22;6995;52.618;13.488;2023-06-14T12:14:32;27.70;1.00
13850;DHT22;6995;52.618;13.488;2023-06-14T12:17:07;28.30;1.00
13850;DHT22;6995;52.618;13.488;2023-06-14T12:19:33;28.60;1.00
13850;DHT22;6995;52.618;13.488;2023-06-14T12:22:07;28.70;1.00
13850;DHT22;6995;52.618;13.488;2023-06-14T12:24:34;29.20;1.00
13850;DHT22;6995;52.618;13.488;2023-06-14T12:27:00;29.00;1.00
13850;DHT22;6995;52.618;13.488;2023-06-14T12:29:28;29.70;1.00
13850;DHT22;6995;52.618;13.488;2023-06-14T12:31:54;30.80;1.00
13850;DHT22;6995;52.618;13.488;2023-06-14T12:34:25;31.30;1.00
13850;DHT22;6995;52.618;13.488;2023-06-14T12:36:52;32.00;1.00
13850;DHT22;6995;52.618;13.488;2023-06-14T12:39:18;31.40;1.00
13850;DHT22;6995;52.618;13.488;2023-06-14T12:41:44;30.50;1.00
13850;DHT22;6995;52.618;13.488;2023-06-14T12:44:13;30.10;1.00
13850;DHT22;6995;52.618;13.488;2023-06-14T12:46:39;29.60;1.00
13850;DHT22;6995;52.618;13.488;2023-06-14T12:49:08;28.70;1.00
13850;DHT22;6995;52.618;13.488;2023-06-14T12:51:34;28.10;1.00
13850;DHT22;6995;52.618;13.488;2023-06-14T12:54:00;28.30;1.00
13850;DHT22;6995;52.618;13.488;2023-06-14T12:56:32;28.30;1.00
13850;DHT22;6995;52.618;13.488;2023-06-14T12:59:01;28.80;1.00
13850;DHT22;6995;52.618;13.488;2023-06-14T13:01:26;29.30;1.00
13850;DHT22;6995;52.618;13.488;2023-06-14T13:03:52;29.20;1.00
13850;DHT22;6995;52.618;13.488;2023-06-14T13:06:22;29.00;1.00
13850;DHT22;6995;52.618;13.488;2023-06-14T13:08:48;28.60;1.00
13850;DHT22;6995;52.618;13.488;2023-06-14T13:11:14;29.30;1.00
13850;DHT22;6995;52.618;13.488;2023-06-14T13:13:40;30.90;1.00
13850;DHT22;6995;52.618;13.488;2023-06-14T13:16:05;31.40;1.00
13850;DHT22;6995;52.618;13.488;2023-06-14T13:18:31;31.70;1.00
13850;DHT22;6995;52.618;13.488;2023-06-14T13:20:57;32.10;1.00
13850;DHT22;6995;52.618;13.488;2023-06-14T13:23:22;32.80;1.00
13850;DHT22;6995;52.618;13.488;2023-06-14T13:25:48;33.30;1.00
13850;DHT22;6995;52.618;13.488;2023-06-14T13:28:16;33.50;1.00
13850;DHT22;6995;52.618;13.488;2023-06-14T13:30:42;33.20;1.00
13850;DHT22;6995;52.618;13.488;2023-06-14T13:33:07;32.90;1.00
13850;DHT22;6995;52.618;13.488;2023-06-14T13:35:33;33.50;1.00
13850;DHT22;6995;52.618;13.488;2023-06-14T13:37:59;33.30;1.00
13850;DHT22;6995;52.618;13.488;2023-06-14T13:40:25;32.90;1.00
13850;DHT22;6995;52.618;13.488;2023-06-14T13:42:51;31.90;1.00
13850;DHT22;6995;52.618;13.488;2023-06-14T13:45:17;30.80;1.00
13850;DHT22;6995;52.618;13.488;2023-06-14T13:47:42;30.20;1.00
13850;DHT22;6995;52.618;13.488;2023-06-14T13:50:08;29.10;1.00
13850;DHT22;6995;52.618;13.488;2023-06-14T13:52:34;28.40;1.00
13850;DHT22;6995;52.618;13.488;2023-06-14T13:55:00;27.70;1.00
13850;DHT22;6995;52.618;13.488;2023-06-14T13:57:26;27.40;1.00
13850;DHT22;6995;52.618;13.488;2023-06-14T13:59:51;27.10;1.00
13850;DHT22;6995;52.618;13.488;2023-06-14T14:02:20;26.50;1.00
13850;DHT22;6995;52.618;13.488;2023-06-14T14:04:46;26.30;1.00
13850;DHT22;6995;52.618;13.488;2023-06-14T14:07:18;25.90;1.00
13850;DHT22;6995;52.618;13.488;2023-06-14T14:09:44;25.60;1.00
13850;DHT22;6995;52.618;13.488;2023-06-14T14:12:10;25.60;1.00
13850;DHT22;6995;52.618;13.488;2023-06-14T14:14:36;26.80;1.00
13850;DHT22;6995;52.618;13.488;2023-06-14T14:17:02;28.50;1.00
13850;DHT22;6995;52.618;13.488;2023-06-14T14:19:28;29.30;1.00
13850;DHT22;6995;52.618;13.488;2023-06-14T14:21:54;28.50;1.00
13850;DHT22;6995;52.618;13.488;2023-06-14T14:24:19;27.10;1.00
13850;DHT22;6995;52.618;13.488;2023-06-14T14:26:45;26.10;1.00
13850;DHT22;6995;52.618;13.488;2023-06-14T14:29:14;25.40;1.00
13850;DHT22;6995;52.618;13.488;2023-06-14T14:31:39;24.90;1.00
13850;DHT22;6995;52.618;13.488;2023-06-14T14:34:05;24.80;1.00
13850;DHT22;6995;52.618;13.488;2023-06-14T14:36:31;24.50;1.00
13850;DHT22;6995;52.618;13.488;2023-06-14T14:38:58;24.30;1.00
13850;DHT22;6995;52.618;13.488;2023-06-14T14:41:24;24.30;1.00
13850;DHT22;6995;52.618;13.488;2023-06-14T14:43:49;24.20;1.00
13850;DHT22;6995;52.618;13.488;2023-06-14T14:46:15;23.90;1.00
13850;DHT22;6995;52.618;13.488;2023-06-14T14:48:42;23.80;1.00
13850;DHT22;6995;52.618;13.488;2023-06-14T14:51:07;23.80;1.00
13850;DHT22;6995;52.618;13.488;2023-06-14T14:53:33;23.70;1.00
13850;DHT22;6995;52.618;13.488;2023-06-14T14:55:59;23.70;1.00
13850;DHT22;6995;52.618;13.488;2023-06-14T14:58:25;23.60;1.00
13850;DHT22;6995;52.618;13.488;2023-06-14T15:00:50;23.60;1.00
13850;DHT22;6995;52.618;13.488;2023-06-14T15:03:16;23.60;1.00
13850;DHT22;6995;52.618;13.488;2023-06-14T15:05:42;23.70;1.00
13850;DHT22;6995;52.618;13.488;2023-06-14T15:08:08;23.70;1.00
13850;DHT22;6995;52.618;13.488;2023-06-14T15:10:37;23.80;1.00
13850;DHT22;6995;52.618;13.488;2023-06-14T15:13:06;23.80;1.00
13850;DHT22;6995;52.618;13.488;2023-06-14T15:15:31;24.10;1.00
13850;DHT22;6995;52.618;13.488;2023-06-14T15:17:57;24.70;1.00
13850;DHT22;6995;52.618;13.488;2023-06-14T15:20:22;26.50;1.00
13850;DHT22;6995;52.618;13.488;2023-06-14T15:22:48;28.90;1.00
13850;DHT22;6995;52.618;13.488;2023-06-14T15:25:14;29.90;1.00
13850;DHT22;6995;52.618;13.488;2023-06-14T15:27:39;29.10;1.00
13850;DHT22;6995;52.618;13.488;2023-06-14T15:30:06;28.70;1.00
13850;DHT22;6995;52.618;13.488;2023-06-14T15:32:50;27.90;1.00
13850;DHT22;6995;52.618;13.488;2023-06-14T15:35:17;27.40;1.00
13850;DHT22;6995;52.618;13.488;2023-06-14T15:37:47;26.60;1.00
13850;DHT22;6995;52.618;13.488;2023-06-14T15:40:13;26.10;1.00
13850;DHT22;6995;52.618;13.488;2023-06-14T15:42:39;26.30;1.00
13850;DHT22;6995;52.618;13.488;2023-06-14T15:45:04;25.90;1.00
13850;DHT22;6995;52.618;13.488;2023-06-14T15:47:30;25.80;1.00
13850;DHT22;6995;52.618;13.488;2023-06-14T15:49:56;25.60;1.00
13850;DHT22;6995;52.618;13.488;2023-06-14T15:52:21;25.20;1.00
13850;DHT22;6995;52.618;13.488;2023-06-14T15:54:47;25.00;1.00
13850;DHT22;6995;52.618;13.488;2023-06-14T15:57:13;24.80;1.00
13850;DHT22;6995;52.618;13.488;2023-06-14T15:59:38;24.70;1.00